UAE440 OMDB-YPAD
Flight info
| Callsign | UAE440 |
|---|---|
| Flight time | N/A |
| Altitude | 31000 |
| Route | ANVIX L223 TARDI DCT GIDAN P570 KITAL L894 DUKET/N0507F330 L894 DADAR DCT 09S084E 13S087E 17S090E 22S094E/N0496F350 23S095E 28S100E 32S107E 33S110E 34S114E DCT NIPON/N0481F370 DCT VIMUS DCT COBEL DCT LESON DCT TUTNO |
| Aircraft | B77W/H-SDE1E2E3FGHIJ2J3J4J5M1RWXY/LB1D1 |
Departure
| Time | 2026-05-08 08:01 |
|---|---|
| Airport | Dubai International Airport (OMDB) |
Arrival
| Time | N/A |
|---|---|
| Airport | Adelaide International Airport (YPAD) |
| Time | Latitude | Longitude | Altitude | Speed | Heading |
|---|---|---|---|---|---|
| 2026-05-08 07:27 | 25.25372 | 55.35423 | 32 ft | 0 kts | 211° |
| 2026-05-08 07:49 | 25.25385 | 55.35432 | 31 ft | 4 kts | 211° |
| 2026-05-08 07:50 | 25.25408 | 55.35448 | 29 ft | 4 kts | 211° |
| 2026-05-08 07:50 | 25.25427 | 55.35461 | 31 ft | 3 kts | 212° |
| 2026-05-08 07:50 | 25.25443 | 55.35475 | 31 ft | 4 kts | 245° |
| 2026-05-08 07:50 | 25.25447 | 55.35491 | 31 ft | 4 kts | 289° |
| 2026-05-08 07:51 | 25.25436 | 55.35514 | 31 ft | 4 kts | 302° |
| 2026-05-08 07:51 | 25.25426 | 55.35533 | 31 ft | 0 kts | 302° |
| 2026-05-08 07:54 | 25.25443 | 55.35501 | 30 ft | 10 kts | 302° |
| 2026-05-08 07:54 | 25.25479 | 55.35438 | 30 ft | 18 kts | 302° |
| 2026-05-08 07:54 | 25.25558 | 55.35296 | 29 ft | 23 kts | 302° |
| 2026-05-08 07:54 | 25.25630 | 55.35173 | 31 ft | 15 kts | 315° |
| 2026-05-08 07:55 | 25.25731 | 55.35182 | 29 ft | 16 kts | 32° |
| 2026-05-08 07:55 | 25.25825 | 55.35246 | 29 ft | 16 kts | 31° |
| 2026-05-08 07:55 | 25.25921 | 55.35310 | 29 ft | 16 kts | 31° |
| 2026-05-08 07:55 | 25.25995 | 55.35400 | 27 ft | 17 kts | 64° |
| 2026-05-08 07:56 | 25.25992 | 55.35548 | 28 ft | 24 kts | 113° |
| 2026-05-08 07:56 | 25.25886 | 55.35740 | 27 ft | 34 kts | 122° |
| 2026-05-08 07:56 | 25.25760 | 55.35965 | 28 ft | 24 kts | 121° |
| 2026-05-08 07:56 | 25.25672 | 55.36122 | 28 ft | 24 kts | 122° |
| 2026-05-08 07:57 | 25.25581 | 55.36283 | 28 ft | 24 kts | 122° |
| 2026-05-08 07:57 | 25.25491 | 55.36442 | 29 ft | 24 kts | 121° |
| 2026-05-08 07:57 | 25.25401 | 55.36603 | 28 ft | 24 kts | 121° |
| 2026-05-08 07:57 | 25.25314 | 55.36760 | 29 ft | 24 kts | 122° |
| 2026-05-08 07:58 | 25.25223 | 55.36919 | 29 ft | 24 kts | 122° |
| 2026-05-08 07:58 | 25.25133 | 55.37081 | 30 ft | 24 kts | 121° |
| 2026-05-08 07:58 | 25.25044 | 55.37240 | 30 ft | 24 kts | 122° |
| 2026-05-08 07:58 | 25.24953 | 55.37399 | 30 ft | 24 kts | 122° |
| 2026-05-08 07:59 | 25.24864 | 55.37559 | 29 ft | 24 kts | 121° |
| 2026-05-08 07:59 | 25.24775 | 55.37719 | 29 ft | 24 kts | 122° |
| 2026-05-08 07:59 | 25.24687 | 55.37873 | 29 ft | 17 kts | 122° |
| 2026-05-08 07:59 | 25.24684 | 55.37965 | 30 ft | 13 kts | 46° |
| 2026-05-08 08:00 | 25.24759 | 55.38013 | 34 ft | 13 kts | 31° |
| 2026-05-08 08:00 | 25.24817 | 55.38019 | 34 ft | 7 kts | 316° |
| 2026-05-08 08:00 | 25.24843 | 55.37962 | 34 ft | 15 kts | 301° |
| 2026-05-08 08:00 | 25.24973 | 55.37727 | 35 ft | 69 kts | 301° |
| 2026-05-08 08:01 | 25.25327 | 55.37088 | 35 ft | 138 kts | 301° |
| 2026-05-08 08:01 | 25.25933 | 55.35979 | 37 ft | 200 kts | 300° |
| 2026-05-08 08:01 | 25.26693 | 55.34631 | 525 ft | 204 kts | 304° |
| 2026-05-08 08:01 | 25.27477 | 55.33257 | 1050 ft | 212 kts | 300° |
| 2026-05-08 08:02 | 25.28243 | 55.31874 | 1725 ft | 214 kts | 300° |
| 2026-05-08 08:02 | 25.28962 | 55.30500 | 2596 ft | 200 kts | 295° |
| 2026-05-08 08:02 | 25.29376 | 55.29047 | 3001 ft | 201 kts | 265° |
| 2026-05-08 08:02 | 25.28954 | 55.27598 | 3277 ft | 200 kts | 242° |
| 2026-05-08 08:03 | 25.28295 | 55.26251 | 3577 ft | 199 kts | 245° |
| 2026-05-08 08:03 | 25.27712 | 55.24892 | 3931 ft | 196 kts | 246° |
| 2026-05-08 08:03 | 25.27097 | 55.23516 | 4140 ft | 201 kts | 246° |
| 2026-05-08 08:03 | 25.26488 | 55.22130 | 4444 ft | 201 kts | 246° |
| 2026-05-08 08:04 | 25.25866 | 55.20717 | 4615 ft | 211 kts | 246° |
| 2026-05-08 08:04 | 25.25213 | 55.19204 | 4766 ft | 224 kts | 246° |
| 2026-05-08 08:04 | 25.24407 | 55.17696 | 4975 ft | 236 kts | 227° |
| 2026-05-08 08:04 | 25.22979 | 55.16771 | 5184 ft | 250 kts | 192° |
| 2026-05-08 08:05 | 25.21213 | 55.16733 | 5430 ft | 259 kts | 178° |
| 2026-05-08 08:05 | 25.19420 | 55.17058 | 5809 ft | 263 kts | 159° |
| 2026-05-08 08:05 | 25.17957 | 55.18271 | 6160 ft | 269 kts | 125° |
| 2026-05-08 08:05 | 25.17054 | 55.20029 | 6418 ft | 276 kts | 117° |
| 2026-05-08 08:06 | 25.16142 | 55.21963 | 6813 ft | 282 kts | 118° |
| 2026-05-08 08:06 | 25.15228 | 55.23886 | 7351 ft | 284 kts | 118° |
| 2026-05-08 08:06 | 25.14312 | 55.25806 | 7975 ft | 284 kts | 118° |
| 2026-05-08 08:06 | 25.13379 | 55.27755 | 8490 ft | 287 kts | 118° |
| 2026-05-08 08:07 | 25.12446 | 55.29701 | 8991 ft | 290 kts | 119° |
| 2026-05-08 08:07 | 25.11499 | 55.31670 | 9507 ft | 292 kts | 119° |
| 2026-05-08 08:07 | 25.10547 | 55.33671 | 9960 ft | 296 kts | 117° |
| 2026-05-08 08:07 | 25.09683 | 55.35738 | 10399 ft | 302 kts | 115° |
| 2026-05-08 08:08 | 25.08818 | 55.37938 | 10552 ft | 320 kts | 115° |
| 2026-05-08 08:08 | 25.07920 | 55.40251 | 10711 ft | 337 kts | 114° |
| 2026-05-08 08:08 | 25.06974 | 55.42690 | 10850 ft | 356 kts | 115° |
| 2026-05-08 08:08 | 25.05972 | 55.45255 | 11101 ft | 369 kts | 115° |
| 2026-05-08 08:09 | 25.05094 | 55.47499 | 11551 ft | 372 kts | 115° |
| 2026-05-08 08:09 | 25.04059 | 55.50133 | 12174 ft | 374 kts | 115° |
| 2026-05-08 08:09 | 25.03018 | 55.52776 | 12678 ft | 380 kts | 115° |
| 2026-05-08 08:09 | 25.01928 | 55.55458 | 13238 ft | 383 kts | 118° |
| 2026-05-08 08:10 | 25.00626 | 55.58001 | 13874 ft | 382 kts | 123° |
| 2026-05-08 08:10 | 24.99237 | 55.60522 | 14397 ft | 385 kts | 122° |
| 2026-05-08 08:10 | 24.97845 | 55.63067 | 14828 ft | 391 kts | 122° |
| 2026-05-08 08:10 | 24.96439 | 55.65659 | 15290 ft | 396 kts | 122° |
| 2026-05-08 08:11 | 24.95211 | 55.67929 | 15714 ft | 399 kts | 121° |
| 2026-05-08 08:11 | 24.93768 | 55.70508 | 16223 ft | 402 kts | 125° |
| 2026-05-08 08:11 | 24.92110 | 55.73041 | 16714 ft | 405 kts | 127° |
| 2026-05-08 08:11 | 24.90457 | 55.75504 | 17196 ft | 408 kts | 127° |
| 2026-05-08 08:12 | 24.88755 | 55.78045 | 17633 ft | 413 kts | 127° |
| 2026-05-08 08:12 | 24.87052 | 55.80603 | 18159 ft | 416 kts | 126° |
| 2026-05-08 08:12 | 24.85337 | 55.83188 | 18489 ft | 421 kts | 126° |
| 2026-05-08 08:12 | 24.83603 | 55.85798 | 19002 ft | 422 kts | 127° |
| 2026-05-08 08:13 | 24.81850 | 55.88403 | 19311 ft | 428 kts | 127° |
| 2026-05-08 08:13 | 24.80062 | 55.91045 | 19706 ft | 431 kts | 127° |
| 2026-05-08 08:13 | 24.78215 | 55.93657 | 20164 ft | 433 kts | 132° |
| 2026-05-08 08:13 | 24.76134 | 55.96055 | 20483 ft | 436 kts | 139° |
| 2026-05-08 08:14 | 24.73881 | 55.98308 | 20921 ft | 438 kts | 139° |
| 2026-05-08 08:14 | 24.71628 | 56.00583 | 21310 ft | 441 kts | 139° |
| 2026-05-08 08:14 | 24.69384 | 56.02884 | 21706 ft | 444 kts | 139° |
| 2026-05-08 08:14 | 24.67118 | 56.05217 | 22074 ft | 447 kts | 139° |
| 2026-05-08 08:15 | 24.64829 | 56.07563 | 22413 ft | 451 kts | 139° |
| 2026-05-08 08:15 | 24.62528 | 56.09919 | 22789 ft | 454 kts | 139° |
| 2026-05-08 08:15 | 24.60210 | 56.12290 | 23126 ft | 457 kts | 139° |
| 2026-05-08 08:15 | 24.57894 | 56.14709 | 23468 ft | 461 kts | 136° |
| 2026-05-08 08:16 | 24.55758 | 56.17342 | 23768 ft | 466 kts | 130° |
| 2026-05-08 08:16 | 24.53811 | 56.20197 | 24089 ft | 468 kts | 128° |
| 2026-05-08 08:16 | 24.51864 | 56.23085 | 24392 ft | 470 kts | 129° |
| 2026-05-08 08:16 | 24.49911 | 56.25977 | 24676 ft | 473 kts | 129° |
| 2026-05-08 08:17 | 24.48205 | 56.28494 | 24910 ft | 475 kts | 129° |
| 2026-05-08 08:17 | 24.46224 | 56.31401 | 25164 ft | 478 kts | 129° |
| 2026-05-08 08:17 | 24.44219 | 56.34331 | 25430 ft | 480 kts | 129° |
| 2026-05-08 08:17 | 24.42206 | 56.37267 | 25690 ft | 482 kts | 129° |
| 2026-05-08 08:18 | 24.40326 | 56.40005 | 25957 ft | 484 kts | 129° |